Paynes Creek, California
Current Conditions -  °F | °C
As of 10:54 PM on Monday 20 Oct 2014 (Local Time) from KRBL Reporting Station
Clear Clear  
Wind Chill: 57°   Ceiling: Unl
Heat Index: 57°   Visibility: 10mi
Dew Point: 41°   Wind: 5mph
Humidity: 55%   Direction: 50°NE
Pressure: 29.99"   Gusts: NA
Location:  40.34°N, 121.91°W
Report Text: KRBL 210554Z AUTO 05004KT 10SM CLR 14/05 A2999 RMK AO2 SLP154 T01390050 10206 20139 51030
Loading
Personal Weather Stations






























Interactive Weather Map
Tropical Storm Tracking
New forecast layout! Learn more

10-Day Weather Forecast

Advertisements
Track Severe Weather on mobile